sensor_id;sensor_type;location;lat;lon;timestamp;P1;durP1;ratioP1;P2;durP2;ratioP2
16667;SDS011;8447;52.630;4.734;2023-05-07T00:00:36;13.60;;;11.37;;
16667;SDS011;8447;52.630;4.734;2023-05-07T00:03:02;13.57;;;12.03;;
16667;SDS011;8447;52.630;4.734;2023-05-07T00:05:28;15.83;;;11.37;;
16667;SDS011;8447;52.630;4.734;2023-05-07T00:07:55;13.93;;;11.43;;
16667;SDS011;8447;52.630;4.734;2023-05-07T00:10:21;11.47;;;10.23;;
16667;SDS011;8447;52.630;4.734;2023-05-07T00:12:49;13.00;;;10.63;;
16667;SDS011;8447;52.630;4.734;2023-05-07T00:15:15;14.23;;;11.37;;
16667;SDS011;8447;52.630;4.734;2023-05-07T00:17:42;12.20;;;10.33;;
16667;SDS011;8447;52.630;4.734;2023-05-07T00:20:08;13.00;;;10.10;;
16667;SDS011;8447;52.630;4.734;2023-05-07T00:22:35;18.00;;;12.20;;
16667;SDS011;8447;52.630;4.734;2023-05-07T00:25:01;13.57;;;11.67;;
16667;SDS011;8447;52.630;4.734;2023-05-07T00:27:28;11.20;;;9.40;;
16667;SDS011;8447;52.630;4.734;2023-05-07T00:29:55;14.40;;;10.73;;
16667;SDS011;8447;52.630;4.734;2023-05-07T00:32:22;12.83;;;10.13;;
16667;SDS011;8447;52.630;4.734;2023-05-07T00:34:48;13.83;;;11.80;;
16667;SDS011;8447;52.630;4.734;2023-05-07T00:37:16;15.73;;;11.33;;
16667;SDS011;8447;52.630;4.734;2023-05-07T00:39:42;16.03;;;11.60;;
16667;SDS011;8447;52.630;4.734;2023-05-07T00:42:08;13.03;;;11.27;;
16667;SDS011;8447;52.630;4.734;2023-05-07T00:44:35;13.73;;;11.10;;
16667;SDS011;8447;52.630;4.734;2023-05-07T00:47:03;15.90;;;10.67;;
16667;SDS011;8447;52.630;4.734;2023-05-07T00:49:33;13.30;;;10.93;;
16667;SDS011;8447;52.630;4.734;2023-05-07T00:52:01;13.20;;;11.07;;
16667;SDS011;8447;52.630;4.734;2023-05-07T00:54:28;14.63;;;10.83;;
16667;SDS011;8447;52.630;4.734;2023-05-07T00:56:54;10.93;;;9.77;;
16667;SDS011;8447;52.630;4.734;2023-05-07T00:59:21;12.37;;;10.23;;
16667;SDS011;8447;52.630;4.734;2023-05-07T01:01:47;9.30;;;7.43;;
16667;SDS011;8447;52.630;4.734;2023-05-07T01:04:15;14.43;;;10.07;;
16667;SDS011;8447;52.630;4.734;2023-05-07T01:06:41;12.90;;;10.83;;
16667;SDS011;8447;52.630;4.734;2023-05-07T01:09:08;17.10;;;11.17;;
16667;SDS011;8447;52.630;4.734;2023-05-07T01:11:34;15.70;;;10.70;;
16667;SDS011;8447;52.630;4.734;2023-05-07T01:14:00;12.73;;;10.87;;
16667;SDS011;8447;52.630;4.734;2023-05-07T01:16:27;11.83;;;10.30;;
16667;SDS011;8447;52.630;4.734;2023-05-07T01:18:54;12.93;;;11.53;;
16667;SDS011;8447;52.630;4.734;2023-05-07T01:21:24;15.43;;;12.00;;
16667;SDS011;8447;52.630;4.734;2023-05-07T01:23:52;15.33;;;11.70;;
16667;SDS011;8447;52.630;4.734;2023-05-07T01:26:20;13.07;;;11.10;;
16667;SDS011;8447;52.630;4.734;2023-05-07T01:28:47;16.80;;;13.30;;
16667;SDS011;8447;52.630;4.734;2023-05-07T01:31:13;13.50;;;11.50;;
16667;SDS011;8447;52.630;4.734;2023-05-07T01:33:40;15.23;;;12.47;;
16667;SDS011;8447;52.630;4.734;2023-05-07T01:36:07;18.13;;;13.20;;
16667;SDS011;8447;52.630;4.734;2023-05-07T01:38:34;14.33;;;11.97;;
16667;SDS011;8447;52.630;4.734;2023-05-07T01:41:02;17.03;;;12.70;;
16667;SDS011;8447;52.630;4.734;2023-05-07T01:43:28;16.93;;;13.13;;
16667;SDS011;8447;52.630;4.734;2023-05-07T01:45:55;16.57;;;12.70;;
16667;SDS011;8447;52.630;4.734;2023-05-07T01:48:23;16.73;;;14.50;;
16667;SDS011;8447;52.630;4.734;2023-05-07T01:50:50;16.20;;;13.47;;
16667;SDS011;8447;52.630;4.734;2023-05-07T01:53:17;17.37;;;12.43;;
16667;SDS011;8447;52.630;4.734;2023-05-07T01:55:43;18.57;;;14.20;;
16667;SDS011;8447;52.630;4.734;2023-05-07T01:58:11;18.63;;;14.40;;
16667;SDS011;8447;52.630;4.734;2023-05-07T02:00:38;20.53;;;13.63;;
16667;SDS011;8447;52.630;4.734;2023-05-07T02:03:04;19.00;;;14.83;;
16667;SDS011;8447;52.630;4.734;2023-05-07T02:05:30;12.93;;;11.00;;
16667;SDS011;8447;52.630;4.734;2023-05-07T02:07:57;18.53;;;14.00;;
16667;SDS011;8447;52.630;4.734;2023-05-07T02:10:23;16.13;;;12.30;;
16667;SDS011;8447;52.630;4.734;2023-05-07T02:12:50;18.10;;;12.53;;
16667;SDS011;8447;52.630;4.734;2023-05-07T02:15:17;18.80;;;14.53;;
16667;SDS011;8447;52.630;4.734;2023-05-07T02:17:57;21.50;;;15.53;;
16667;SDS011;8447;52.630;4.734;2023-05-07T02:20:24;18.50;;;12.43;;
16667;SDS011;8447;52.630;4.734;2023-05-07T02:22:51;20.03;;;14.37;;
16667;SDS011;8447;52.630;4.734;2023-05-07T02:25:17;19.17;;;14.27;;
16667;SDS011;8447;52.630;4.734;2023-05-07T02:27:43;18.47;;;15.73;;
16667;SDS011;8447;52.630;4.734;2023-05-07T02:30:10;21.00;;;15.53;;
16667;SDS011;8447;52.630;4.734;2023-05-07T02:32:38;17.13;;;13.00;;
16667;SDS011;8447;52.630;4.734;2023-05-07T02:35:05;16.83;;;13.63;;
16667;SDS011;8447;52.630;4.734;2023-05-07T02:37:31;18.30;;;14.77;;
16667;SDS011;8447;52.630;4.734;2023-05-07T02:39:57;20.57;;;14.50;;
16667;SDS011;8447;52.630;4.734;2023-05-07T02:42:24;17.47;;;13.97;;
16667;SDS011;8447;52.630;4.734;2023-05-07T02:44:50;21.23;;;15.07;;
16667;SDS011;8447;52.630;4.734;2023-05-07T02:47:16;18.00;;;13.97;;
16667;SDS011;8447;52.630;4.734;2023-05-07T02:49:44;14.20;;;10.83;;
16667;SDS011;8447;52.630;4.734;2023-05-07T02:52:10;18.27;;;13.20;;
16667;SDS011;8447;52.630;4.734;2023-05-07T02:54:37;17.87;;;13.73;;
16667;SDS011;8447;52.630;4.734;2023-05-07T02:57:03;17.67;;;13.63;;
16667;SDS011;8447;52.630;4.734;2023-05-07T02:59:30;13.33;;;9.73;;
16667;SDS011;8447;52.630;4.734;2023-05-07T03:01:56;14.70;;;13.03;;
16667;SDS011;8447;52.630;4.734;2023-05-07T03:04:22;14.07;;;10.77;;
16667;SDS011;8447;52.630;4.734;2023-05-07T03:06:50;12.93;;;9.47;;
16667;SDS011;8447;52.630;4.734;2023-05-07T03:09:16;17.57;;;11.77;;
16667;SDS011;8447;52.630;4.734;2023-05-07T03:11:43;15.43;;;12.17;;
16667;SDS011;8447;52.630;4.734;2023-05-07T03:14:09;14.83;;;10.67;;
16667;SDS011;8447;52.630;4.734;2023-05-07T03:16:35;13.50;;;9.60;;
16667;SDS011;8447;52.630;4.734;2023-05-07T03:19:02;17.37;;;11.47;;
16667;SDS011;8447;52.630;4.734;2023-05-07T03:21:28;11.63;;;8.67;;
16667;SDS011;8447;52.630;4.734;2023-05-07T03:23:56;9.90;;;8.07;;
16667;SDS011;8447;52.630;4.734;2023-05-07T03:26:23;10.53;;;8.97;;
16667;SDS011;8447;52.630;4.734;2023-05-07T03:28:50;10.83;;;8.73;;
16667;SDS011;8447;52.630;4.734;2023-05-07T03:31:16;11.23;;;9.03;;
16667;SDS011;8447;52.630;4.734;2023-05-07T03:33:49;9.20;;;7.50;;
16667;SDS011;8447;52.630;4.734;2023-05-07T03:36:16;13.13;;;8.57;;
16667;SDS011;8447;52.630;4.734;2023-05-07T03:38:43;7.13;;;5.37;;
16667;SDS011;8447;52.630;4.734;2023-05-07T03:41:11;9.87;;;8.23;;
16667;SDS011;8447;52.630;4.734;2023-05-07T03:43:37;7.37;;;5.03;;
16667;SDS011;8447;52.630;4.734;2023-05-07T03:46:03;10.50;;;8.03;;
16667;SDS011;8447;52.630;4.734;2023-05-07T03:48:30;7.00;;;5.63;;
16667;SDS011;8447;52.630;4.734;2023-05-07T03:50:57;9.60;;;7.57;;
16667;SDS011;8447;52.630;4.734;2023-05-07T03:53:23;7.73;;;5.87;;
16667;SDS011;8447;52.630;4.734;2023-05-07T03:55:50;10.40;;;7.60;;
16667;SDS011;8447;52.630;4.734;2023-05-07T03:58:17;13.37;;;7.47;;
16667;SDS011;8447;52.630;4.734;2023-05-07T04:00:44;6.73;;;5.43;;
16667;SDS011;8447;52.630;4.734;2023-05-07T04:03:10;9.70;;;7.03;;
16667;SDS011;8447;52.630;4.734;2023-05-07T04:05:37;8.87;;;6.70;;
16667;SDS011;8447;52.630;4.734;2023-05-07T04:08:03;7.80;;;6.20;;
16667;SDS011;8447;52.630;4.734;2023-05-07T04:10:30;8.17;;;7.33;;
16667;SDS011;8447;52.630;4.734;2023-05-07T04:12:56;8.57;;;5.17;;
16667;SDS011;8447;52.630;4.734;2023-05-07T04:15:24;7.10;;;6.10;;
16667;SDS011;8447;52.630;4.734;2023-05-07T04:17:50;7.90;;;6.77;;
16667;SDS011;8447;52.630;4.734;2023-05-07T04:20:17;8.83;;;6.93;;
16667;SDS011;8447;52.630;4.734;2023-05-07T04:22:43;7.43;;;6.00;;
16667;SDS011;8447;52.630;4.734;2023-05-07T04:25:10;7.63;;;6.30;;
16667;SDS011;8447;52.630;4.734;2023-05-07T04:27:36;7.87;;;6.80;;
16667;SDS011;8447;52.630;4.734;2023-05-07T04:30:04;9.13;;;6.50;;
16667;SDS011;8447;52.630;4.734;2023-05-07T04:32:33;7.00;;;6.30;;
16667;SDS011;8447;52.630;4.734;2023-05-07T04:34:59;10.03;;;6.43;;
16667;SDS011;8447;52.630;4.734;2023-05-07T04:37:25;12.17;;;6.33;;
16667;SDS011;8447;52.630;4.734;2023-05-07T04:39:52;7.60;;;6.80;;
16667;SDS011;8447;52.630;4.734;2023-05-07T04:42:18;8.70;;;7.00;;
16667;SDS011;8447;52.630;4.734;2023-05-07T04:44:44;6.33;;;5.73;;
16667;SDS011;8447;52.630;4.734;2023-05-07T04:47:11;7.53;;;6.73;;
16667;SDS011;8447;52.630;4.734;2023-05-07T04:49:39;7.53;;;5.93;;
16667;SDS011;8447;52.630;4.734;2023-05-07T04:52:05;10.27;;;6.73;;
16667;SDS011;8447;52.630;4.734;2023-05-07T04:54:31;9.33;;;6.27;;
16667;SDS011;8447;52.630;4.734;2023-05-07T04:56:58;8.90;;;6.03;;
16667;SDS011;8447;52.630;4.734;2023-05-07T04:59:24;8.67;;;6.77;;
16667;SDS011;8447;52.630;4.734;2023-05-07T05:01:51;7.53;;;6.00;;
16667;SDS011;8447;52.630;4.734;2023-05-07T05:04:17;7.67;;;6.13;;
16667;SDS011;8447;52.630;4.734;2023-05-07T05:06:45;6.17;;;5.53;;
16667;SDS011;8447;52.630;4.734;2023-05-07T05:09:11;6.03;;;5.37;;
16667;SDS011;8447;52.630;4.734;2023-05-07T05:11:37;7.33;;;5.40;;
16667;SDS011;8447;52.630;4.734;2023-05-07T05:14:04;5.67;;;4.43;;
16667;SDS011;8447;52.630;4.734;2023-05-07T05:16:31;7.13;;;5.20;;
16667;SDS011;8447;52.630;4.734;2023-05-07T05:18:57;6.73;;;5.07;;
16667;SDS011;8447;52.630;4.734;2023-05-07T05:21:23;6.47;;;5.00;;
16667;SDS011;8447;52.630;4.734;2023-05-07T05:23:51;6.37;;;4.43;;
16667;SDS011;8447;52.630;4.734;2023-05-07T05:26:18;9.33;;;5.50;;
16667;SDS011;8447;52.630;4.734;2023-05-07T05:28:46;6.93;;;4.93;;
16667;SDS011;8447;52.630;4.734;2023-05-07T05:31:12;6.03;;;5.17;;
16667;SDS011;8447;52.630;4.734;2023-05-07T05:33:39;4.23;;;3.67;;
16667;SDS011;8447;52.630;4.734;2023-05-07T05:36:05;4.37;;;3.97;;
16667;SDS011;8447;52.630;4.734;2023-05-07T05:38:32;7.03;;;4.60;;
16667;SDS011;8447;52.630;4.734;2023-05-07T05:41:00;5.40;;;3.73;;
16667;SDS011;8447;52.630;4.734;2023-05-07T05:43:26;6.93;;;4.60;;
16667;SDS011;8447;52.630;4.734;2023-05-07T05:45:52;6.57;;;4.50;;
16667;SDS011;8447;52.630;4.734;2023-05-07T05:48:19;5.30;;;4.00;;
16667;SDS011;8447;52.630;4.734;2023-05-07T05:50:45;5.77;;;3.80;;
16667;SDS011;8447;52.630;4.734;2023-05-07T05:53:12;5.73;;;4.33;;
16667;SDS011;8447;52.630;4.734;2023-05-07T05:55:38;4.53;;;4.10;;
16667;SDS011;8447;52.630;4.734;2023-05-07T05:58:06;5.97;;;4.93;;
16667;SDS011;8447;52.630;4.734;2023-05-07T06:00:32;6.20;;;4.30;;
16667;SDS011;8447;52.630;4.734;2023-05-07T06:02:59;5.43;;;4.50;;
16667;SDS011;8447;52.630;4.734;2023-05-07T06:05:25;8.00;;;4.53;;
16667;SDS011;8447;52.630;4.734;2023-05-07T06:07:51;7.90;;;4.20;;
16667;SDS011;8447;52.630;4.734;2023-05-07T06:10:18;6.00;;;4.50;;
16667;SDS011;8447;52.630;4.734;2023-05-07T06:12:44;6.03;;;4.23;;
16667;SDS011;8447;52.630;4.734;2023-05-07T06:15:12;7.07;;;3.93;;
16667;SDS011;8447;52.630;4.734;2023-05-07T06:17:38;6.97;;;5.10;;
16667;SDS011;8447;52.630;4.734;2023-05-07T06:20:05;5.53;;;4.10;;
16667;SDS011;8447;52.630;4.734;2023-05-07T06:22:32;7.63;;;5.63;;
16667;SDS011;8447;52.630;4.734;2023-05-07T06:24:58;6.13;;;5.53;;
16667;SDS011;8447;52.630;4.734;2023-05-07T06:27:25;7.33;;;6.47;;
16667;SDS011;8447;52.630;4.734;2023-05-07T06:29:53;10.30;;;7.17;;
16667;SDS011;8447;52.630;4.734;2023-05-07T06:32:20;7.13;;;6.53;;
16667;SDS011;8447;52.630;4.734;2023-05-07T06:34:47;7.90;;;7.10;;
16667;SDS011;8447;52.630;4.734;2023-05-07T06:37:13;9.13;;;8.23;;
16667;SDS011;8447;52.630;4.734;2023-05-07T06:39:40;8.43;;;7.67;;
16667;SDS011;8447;52.630;4.734;2023-05-07T06:42:06;8.97;;;8.17;;
16667;SDS011;8447;52.630;4.734;2023-05-07T06:44:32;8.40;;;7.60;;
16667;SDS011;8447;52.630;4.734;2023-05-07T06:46:59;11.40;;;9.40;;
16667;SDS011;8447;52.630;4.734;2023-05-07T06:49:27;11.90;;;10.67;;
16667;SDS011;8447;52.630;4.734;2023-05-07T06:51:53;12.77;;;10.07;;
16667;SDS011;8447;52.630;4.734;2023-05-07T06:54:20;11.30;;;10.20;;
16667;SDS011;8447;52.630;4.734;2023-05-07T06:56:46;12.90;;;10.87;;
16667;SDS011;8447;52.630;4.734;2023-05-07T06:59:13;11.87;;;10.63;;
16667;SDS011;8447;52.630;4.734;2023-05-07T07:01:39;12.70;;;11.50;;
16667;SDS011;8447;52.630;4.734;2023-05-07T07:04:06;12.33;;;10.73;;
16667;SDS011;8447;52.630;4.734;2023-05-07T07:06:34;12.47;;;11.17;;
16667;SDS011;8447;52.630;4.734;2023-05-07T07:09:00;12.07;;;10.87;;
16667;SDS011;8447;52.630;4.734;2023-05-07T07:11:26;11.60;;;10.43;;
16667;SDS011;8447;52.630;4.734;2023-05-07T07:13:53;11.33;;;10.23;;
16667;SDS011;8447;52.630;4.734;2023-05-07T07:16:20;11.20;;;10.17;;
16667;SDS011;8447;52.630;4.734;2023-05-07T07:18:46;10.97;;;9.87;;
16667;SDS011;8447;52.630;4.734;2023-05-07T07:21:12;13.30;;;10.90;;
16667;SDS011;8447;52.630;4.734;2023-05-07T07:23:40;12.40;;;11.30;;
16667;SDS011;8447;52.630;4.734;2023-05-07T07:26:06;11.67;;;10.50;;
16667;SDS011;8447;52.630;4.734;2023-05-07T07:28:33;10.67;;;9.70;;
16667;SDS011;8447;52.630;4.734;2023-05-07T07:30:59;12.10;;;10.90;;
16667;SDS011;8447;52.630;4.734;2023-05-07T07:33:26;11.83;;;9.93;;
16667;SDS011;8447;52.630;4.734;2023-05-07T07:35:52;13.20;;;11.43;;
16667;SDS011;8447;52.630;4.734;2023-05-07T07:38:18;12.00;;;10.77;;
16667;SDS011;8447;52.630;4.734;2023-05-07T07:40:48;10.00;;;8.33;;
16667;SDS011;8447;52.630;4.734;2023-05-07T07:43:14;11.30;;;10.10;;
16667;SDS011;8447;52.630;4.734;2023-05-07T07:45:41;11.10;;;9.83;;
16667;SDS011;8447;52.630;4.734;2023-05-07T07:48:07;10.47;;;8.87;;
16667;SDS011;8447;52.630;4.734;2023-05-07T07:50:35;10.63;;;9.23;;
16667;SDS011;8447;52.630;4.734;2023-05-07T07:53:01;10.53;;;9.53;;
16667;SDS011;8447;52.630;4.734;2023-05-07T07:55:29;10.97;;;9.80;;
16667;SDS011;8447;52.630;4.734;2023-05-07T07:57:58;10.17;;;9.17;;
16667;SDS011;8447;52.630;4.734;2023-05-07T08:00:24;10.07;;;8.87;;
16667;SDS011;8447;52.630;4.734;2023-05-07T08:02:51;8.77;;;7.97;;
16667;SDS011;8447;52.630;4.734;2023-05-07T08:05:17;9.73;;;8.83;;
16667;SDS011;8447;52.630;4.734;2023-05-07T08:07:44;9.43;;;8.43;;
16667;SDS011;8447;52.630;4.734;2023-05-07T08:10:11;10.03;;;7.20;;
16667;SDS011;8447;52.630;4.734;2023-05-07T08:12:37;9.83;;;8.33;;
16667;SDS011;8447;52.630;4.734;2023-05-07T08:15:06;8.67;;;7.77;;
16667;SDS011;8447;52.630;4.734;2023-05-07T08:17:32;9.70;;;8.80;;
16667;SDS011;8447;52.630;4.734;2023-05-07T08:19:59;9.97;;;8.90;;
16667;SDS011;8447;52.630;4.734;2023-05-07T08:22:25;9.60;;;8.60;;
16667;SDS011;8447;52.630;4.734;2023-05-07T08:24:51;9.00;;;8.20;;
16667;SDS011;8447;52.630;4.734;2023-05-07T08:27:18;9.67;;;8.70;;
16667;SDS011;8447;52.630;4.734;2023-05-07T08:29:45;8.67;;;7.50;;
16667;SDS011;8447;52.630;4.734;2023-05-07T08:32:13;8.13;;;7.33;;
16667;SDS011;8447;52.630;4.734;2023-05-07T08:34:40;6.80;;;6.20;;
16667;SDS011;8447;52.630;4.734;2023-05-07T08:37:06;9.00;;;7.97;;
16667;SDS011;8447;52.630;4.734;2023-05-07T08:39:35;11.33;;;8.27;;
16667;SDS011;8447;52.630;4.734;2023-05-07T08:42:01;8.17;;;7.37;;
16667;SDS011;8447;52.630;4.734;2023-05-07T08:44:30;7.90;;;6.80;;
16667;SDS011;8447;52.630;4.734;2023-05-07T08:46:59;7.40;;;6.67;;
16667;SDS011;8447;52.630;4.734;2023-05-07T08:49:28;7.23;;;6.27;;
16667;SDS011;8447;52.630;4.734;2023-05-07T08:51:54;10.83;;;6.63;;
16667;SDS011;8447;52.630;4.734;2023-05-07T08:54:21;6.87;;;5.60;;
16667;SDS011;8447;52.630;4.734;2023-05-07T08:56:48;7.00;;;5.77;;
16667;SDS011;8447;52.630;4.734;2023-05-07T08:59:14;5.87;;;5.27;;
16667;SDS011;8447;52.630;4.734;2023-05-07T09:01:41;5.13;;;4.07;;
16667;SDS011;8447;52.630;4.734;2023-05-07T09:04:07;8.47;;;6.73;;
16667;SDS011;8447;52.630;4.734;2023-05-07T09:06:35;6.63;;;5.53;;
16667;SDS011;8447;52.630;4.734;2023-05-07T09:09:03;7.70;;;6.90;;
16667;SDS011;8447;52.630;4.734;2023-05-07T09:11:30;7.67;;;6.23;;
16667;SDS011;8447;52.630;4.734;2023-05-07T09:13:56;5.67;;;5.17;;
16667;SDS011;8447;52.630;4.734;2023-05-07T09:16:26;8.40;;;6.70;;
16667;SDS011;8447;52.630;4.734;2023-05-07T09:18:53;8.33;;;6.63;;
16667;SDS011;8447;52.630;4.734;2023-05-07T09:21:19;7.23;;;6.33;;
16667;SDS011;8447;52.630;4.734;2023-05-07T09:23:50;7.13;;;6.53;;
16667;SDS011;8447;52.630;4.734;2023-05-07T09:26:17;8.43;;;6.53;;
16667;SDS011;8447;52.630;4.734;2023-05-07T09:28:45;7.67;;;6.17;;
16667;SDS011;8447;52.630;4.734;2023-05-07T09:31:12;8.03;;;6.07;;
16667;SDS011;8447;52.630;4.734;2023-05-07T09:33:38;6.93;;;6.23;;
16667;SDS011;8447;52.630;4.734;2023-05-07T09:36:05;6.30;;;4.63;;
16667;SDS011;8447;52.630;4.734;2023-05-07T09:38:32;5.73;;;4.23;;
16667;SDS011;8447;52.630;4.734;2023-05-07T09:41:03;4.73;;;3.70;;
16667;SDS011;8447;52.630;4.734;2023-05-07T09:43:31;5.60;;;3.63;;
16667;SDS011;8447;52.630;4.734;2023-05-07T09:45:58;7.43;;;4.30;;
16667;SDS011;8447;52.630;4.734;2023-05-07T09:48:25;5.17;;;4.00;;
16667;SDS011;8447;52.630;4.734;2023-05-07T09:50:51;3.87;;;3.47;;
16667;SDS011;8447;52.630;4.734;2023-05-07T09:53:21;4.93;;;3.10;;
16667;SDS011;8447;52.630;4.734;2023-05-07T09:55:48;4.70;;;3.37;;
16667;SDS011;8447;52.630;4.734;2023-05-07T09:58:23;5.93;;;3.70;;
16667;SDS011;8447;52.630;4.734;2023-05-07T10:00:51;5.47;;;3.90;;
16667;SDS011;8447;52.630;4.734;2023-05-07T10:03:18;4.07;;;3.53;;
16667;SDS011;8447;52.630;4.734;2023-05-07T10:05:45;5.20;;;3.60;;
16667;SDS011;8447;52.630;4.734;2023-05-07T10:08:14;4.17;;;3.30;;
16667;SDS011;8447;52.630;4.734;2023-05-07T10:10:41;7.97;;;7.13;;
16667;SDS011;8447;52.630;4.734;2023-05-07T10:13:08;10.20;;;9.20;;
16667;SDS011;8447;52.630;4.734;2023-05-07T10:15:37;9.37;;;8.47;;
16667;SDS011;8447;52.630;4.734;2023-05-07T10:18:04;9.87;;;7.90;;
16667;SDS011;8447;52.630;4.734;2023-05-07T10:20:32;10.63;;;9.47;;
16667;SDS011;8447;52.630;4.734;2023-05-07T10:22:59;11.47;;;10.30;;
16667;SDS011;8447;52.630;4.734;2023-05-07T10:25:28;11.53;;;10.37;;
16667;SDS011;8447;52.630;4.734;2023-05-07T10:27:55;10.80;;;9.70;;
16667;SDS011;8447;52.630;4.734;2023-05-07T10:30:24;11.50;;;10.37;;
16667;SDS011;8447;52.630;4.734;2023-05-07T10:32:55;15.63;;;9.73;;
16667;SDS011;8447;52.630;4.734;2023-05-07T10:35:24;11.13;;;9.70;;
16667;SDS011;8447;52.630;4.734;2023-05-07T10:37:52;11.30;;;10.10;;
16667;SDS011;8447;52.630;4.734;2023-05-07T10:40:19;13.43;;;10.53;;
16667;SDS011;8447;52.630;4.734;2023-05-07T10:42:53;11.87;;;10.70;;
16667;SDS011;8447;52.630;4.734;2023-05-07T10:45:24;12.87;;;11.37;;
16667;SDS011;8447;52.630;4.734;2023-05-07T10:48:11;14.13;;;11.73;;
16667;SDS011;8447;52.630;4.734;2023-05-07T10:50:38;14.30;;;11.10;;
16667;SDS011;8447;52.630;4.734;2023-05-07T10:53:24;13.90;;;11.27;;
16667;SDS011;8447;52.630;4.734;2023-05-07T10:58:49;12.13;;;10.73;;
16667;SDS011;8447;52.630;4.734;2023-05-07T11:01:15;12.70;;;11.10;;
16667;SDS011;8447;52.630;4.734;2023-05-07T11:04:16;12.67;;;11.37;;
16667;SDS011;8447;52.630;4.734;2023-05-07T11:12:12;14.20;;;10.70;;
16667;SDS011;8447;52.630;4.734;2023-05-07T11:14:44;13.27;;;11.97;;
16667;SDS011;8447;52.630;4.734;2023-05-07T11:17:11;13.23;;;11.73;;
16667;SDS011;8447;52.630;4.734;2023-05-07T11:19:51;10.23;;;9.13;;
16667;SDS011;8447;52.630;4.734;2023-05-07T11:25:04;13.20;;;11.80;;
16667;SDS011;8447;52.630;4.734;2023-05-07T11:27:32;15.33;;;12.27;;
16667;SDS011;8447;52.630;4.734;2023-05-07T11:29:58;13.03;;;11.77;;
16667;SDS011;8447;52.630;4.734;2023-05-07T11:32:26;13.03;;;10.87;;
16667;SDS011;8447;52.630;4.734;2023-05-07T11:34:55;14.40;;;11.63;;
16667;SDS011;8447;52.630;4.734;2023-05-07T11:37:22;12.87;;;11.10;;
16667;SDS011;8447;52.630;4.734;2023-05-07T11:39:48;13.90;;;12.23;;
16667;SDS011;8447;52.630;4.734;2023-05-07T11:42:25;11.60;;;10.30;;
16667;SDS011;8447;52.630;4.734;2023-05-07T11:44:51;12.47;;;11.07;;
16667;SDS011;8447;52.630;4.734;2023-05-07T11:47:20;14.33;;;12.00;;
16667;SDS011;8447;52.630;4.734;2023-05-07T11:49:47;15.03;;;12.30;;
16667;SDS011;8447;52.630;4.734;2023-05-07T11:52:15;13.07;;;11.63;;
16667;SDS011;8447;52.630;4.734;2023-05-07T11:54:44;15.40;;;12.10;;
16667;SDS011;8447;52.630;4.734;2023-05-07T11:57:14;13.13;;;11.83;;
16667;SDS011;8447;52.630;4.734;2023-05-07T11:59:41;13.67;;;12.27;;
16667;SDS011;8447;52.630;4.734;2023-05-07T12:02:09;13.60;;;11.93;;
16667;SDS011;8447;52.630;4.734;2023-05-07T12:04:35;14.23;;;12.83;;
16667;SDS011;8447;52.630;4.734;2023-05-07T12:07:02;14.27;;;12.73;;
16667;SDS011;8447;52.630;4.734;2023-05-07T12:09:32;15.57;;;12.93;;
16667;SDS011;8447;52.630;4.734;2023-05-07T12:12:03;15.03;;;13.00;;
16667;SDS011;8447;52.630;4.734;2023-05-07T12:14:29;13.13;;;11.77;;
16667;SDS011;8447;52.630;4.734;2023-05-07T12:16:56;13.57;;;10.33;;
16667;SDS011;8447;52.630;4.734;2023-05-07T12:19:23;16.77;;;12.87;;
16667;SDS011;8447;52.630;4.734;2023-05-07T12:21:51;19.00;;;13.83;;
16667;SDS011;8447;52.630;4.734;2023-05-07T12:24:17;16.03;;;12.97;;
16667;SDS011;8447;52.630;4.734;2023-05-07T12:26:45;18.17;;;12.90;;
16667;SDS011;8447;52.630;4.734;2023-05-07T12:29:11;15.47;;;12.93;;
16667;SDS011;8447;52.630;4.734;2023-05-07T12:31:40;15.87;;;12.47;;
16667;SDS011;8447;52.630;4.734;2023-05-07T12:34:06;13.60;;;11.97;;
16667;SDS011;8447;52.630;4.734;2023-05-07T12:36:39;17.83;;;14.33;;
16667;SDS011;8447;52.630;4.734;2023-05-07T12:39:06;14.80;;;12.60;;
16667;SDS011;8447;52.630;4.734;2023-05-07T12:41:35;15.13;;;13.17;;
16667;SDS011;8447;52.630;4.734;2023-05-07T12:44:05;15.67;;;13.50;;
16667;SDS011;8447;52.630;4.734;2023-05-07T12:46:32;15.93;;;13.37;;
16667;SDS011;8447;52.630;4.734;2023-05-07T12:49:04;15.97;;;13.67;;
16667;SDS011;8447;52.630;4.734;2023-05-07T12:51:30;16.63;;;14.70;;
16667;SDS011;8447;52.630;4.734;2023-05-07T12:53:58;15.47;;;13.63;;
16667;SDS011;8447;52.630;4.734;2023-05-07T12:56:24;15.57;;;13.70;;
16667;SDS011;8447;52.630;4.734;2023-05-07T12:58:51;17.47;;;14.07;;
16667;SDS011;8447;52.630;4.734;2023-05-07T13:01:19;17.37;;;14.40;;
16667;SDS011;8447;52.630;4.734;2023-05-07T13:03:47;17.17;;;14.57;;
16667;SDS011;8447;52.630;4.734;2023-05-07T13:06:17;16.07;;;13.87;;
16667;SDS011;8447;52.630;4.734;2023-05-07T13:08:43;17.20;;;13.73;;
16667;SDS011;8447;52.630;4.734;2023-05-07T13:11:10;16.80;;;14.10;;
16667;SDS011;8447;52.630;4.734;2023-05-07T13:13:37;16.43;;;13.57;;
16667;SDS011;8447;52.630;4.734;2023-05-07T13:16:05;14.37;;;12.70;;
16667;SDS011;8447;52.630;4.734;2023-05-07T13:18:39;16.03;;;12.77;;
16667;SDS011;8447;52.630;4.734;2023-05-07T13:21:05;14.80;;;13.03;;
16667;SDS011;8447;52.630;4.734;2023-05-07T13:23:33;15.63;;;13.40;;
16667;SDS011;8447;52.630;4.734;2023-05-07T13:26:00;14.87;;;13.03;;
16667;SDS011;8447;52.630;4.734;2023-05-07T13:28:26;18.30;;;13.73;;
16667;SDS011;8447;52.630;4.734;2023-05-07T13:30:52;15.40;;;13.67;;
16667;SDS011;8447;52.630;4.734;2023-05-07T13:33:19;15.37;;;12.47;;
16667;SDS011;8447;52.630;4.734;2023-05-07T13:35:47;16.73;;;14.10;;
16667;SDS011;8447;52.630;4.734;2023-05-07T13:38:13;18.50;;;14.20;;
16667;SDS011;8447;52.630;4.734;2023-05-07T13:40:40;14.13;;;12.67;;
16667;SDS011;8447;52.630;4.734;2023-05-07T13:43:07;18.40;;;14.20;;
16667;SDS011;8447;52.630;4.734;2023-05-07T13:45:33;18.20;;;14.23;;
16667;SDS011;8447;52.630;4.734;2023-05-07T13:48:01;19.53;;;13.17;;
16667;SDS011;8447;52.630;4.734;2023-05-07T13:50:36;16.53;;;11.83;;
16667;SDS011;8447;52.630;4.734;2023-05-07T13:53:04;15.03;;;12.00;;
16667;SDS011;8447;52.630;4.734;2023-05-07T13:55:30;16.67;;;12.43;;
16667;SDS011;8447;52.630;4.734;2023-05-07T13:57:57;16.53;;;12.70;;
16667;SDS011;8447;52.630;4.734;2023-05-07T14:00:23;17.30;;;13.33;;
16667;SDS011;8447;52.630;4.734;2023-05-07T14:02:50;16.27;;;13.00;;
16667;SDS011;8447;52.630;4.734;2023-05-07T14:05:16;14.90;;;11.57;;
16667;SDS011;8447;52.630;4.734;2023-05-07T14:07:43;15.37;;;13.20;;
16667;SDS011;8447;52.630;4.734;2023-05-07T14:10:11;14.70;;;12.00;;
16667;SDS011;8447;52.630;4.734;2023-05-07T14:12:38;17.57;;;12.97;;
16667;SDS011;8447;52.630;4.734;2023-05-07T14:15:04;18.90;;;12.43;;
16667;SDS011;8447;52.630;4.734;2023-05-07T14:17:31;14.17;;;12.10;;
16667;SDS011;8447;52.630;4.734;2023-05-07T14:19:57;16.83;;;12.70;;
16667;SDS011;8447;52.630;4.734;2023-05-07T14:22:23;16.57;;;12.23;;
16667;SDS011;8447;52.630;4.734;2023-05-07T14:24:50;12.67;;;10.20;;
16667;SDS011;8447;52.630;4.734;2023-05-07T14:27:17;11.80;;;10.07;;
16667;SDS011;8447;52.630;4.734;2023-05-07T14:29:44;14.17;;;10.77;;
16667;SDS011;8447;52.630;4.734;2023-05-07T14:32:10;14.73;;;10.23;;
16667;SDS011;8447;52.630;4.734;2023-05-07T14:34:37;13.17;;;10.20;;
16667;SDS011;8447;52.630;4.734;2023-05-07T14:37:03;14.17;;;10.27;;
16667;SDS011;8447;52.630;4.734;2023-05-07T14:39:29;12.83;;;11.00;;
16667;SDS011;8447;52.630;4.734;2023-05-07T14:41:56;14.07;;;11.07;;
16667;SDS011;8447;52.630;4.734;2023-05-07T14:44:24;16.47;;;11.77;;
16667;SDS011;8447;52.630;4.734;2023-05-07T14:46:50;18.30;;;13.50;;
16667;SDS011;8447;52.630;4.734;2023-05-07T14:49:17;16.10;;;13.17;;
16667;SDS011;8447;52.630;4.734;2023-05-07T14:51:43;16.83;;;13.37;;
16667;SDS011;8447;52.630;4.734;2023-05-07T14:54:10;14.47;;;12.37;;
16667;SDS011;8447;52.630;4.734;2023-05-07T14:56:36;17.83;;;13.77;;